createdAt,value
2022-11-29T00:01:34.598Z,-3.22
2022-11-29T00:04:02.733Z,-3.17
2022-11-29T00:06:33.367Z,-3.21
2022-11-29T00:09:04.452Z,-3.23
2022-11-29T00:11:54.068Z,-3.27
2022-11-29T00:14:22.280Z,-3.19
2022-11-29T00:16:54.898Z,-3.30
2022-11-29T00:19:22.326Z,-3.39
2022-11-29T00:21:49.199Z,-3.30
2022-11-29T00:24:16.417Z,-3.29
2022-11-29T00:26:43.330Z,-3.13
2022-11-29T00:29:12.619Z,-3.28
2022-11-29T00:31:40.725Z,-3.29
2022-11-29T00:34:09.737Z,-3.20
2022-11-29T00:36:36.982Z,-3.26
2022-11-29T00:39:05.194Z,-3.34
2022-11-29T00:41:32.297Z,-3.20
2022-11-29T00:43:59.396Z,-3.14
2022-11-29T00:46:26.421Z,-3.07
2022-11-29T00:48:53.411Z,-2.96
2022-11-29T00:51:20.342Z,-2.99
2022-11-29T00:53:47.341Z,-3.00
2022-11-29T00:56:14.342Z,-3.28
2022-11-29T00:58:43.621Z,-3.19
2022-11-29T01:01:11.845Z,-3.27
2022-11-29T01:03:39.304Z,-3.12
2022-11-29T01:06:12.898Z,-3.40
2022-11-29T01:08:40.023Z,-3.17
2022-11-29T01:11:06.934Z,-3.19
2022-11-29T01:13:35.091Z,-3.28
2022-11-29T01:16:02.079Z,-3.27
2022-11-29T01:18:30.628Z,-3.32
2022-11-29T01:20:59.543Z,-3.25
2022-11-29T01:23:27.445Z,-3.48
2022-11-29T01:26:18.936Z,-3.31
2022-11-29T01:28:47.455Z,-3.39
2022-11-29T01:31:17.794Z,-3.54
2022-11-29T01:33:44.776Z,-3.27
2022-11-29T01:36:13.743Z,-3.29
2022-11-29T01:38:42.489Z,-3.17
2022-11-29T01:41:13.711Z,-3.26
2022-11-29T01:44:01.596Z,-3.34
2022-11-29T01:46:31.871Z,-3.39
2022-11-29T01:49:28.007Z,-3.54
2022-11-29T01:52:30.109Z,-3.64
2022-11-29T01:55:00.697Z,-3.38
2022-11-29T01:57:28.510Z,-3.37
2022-11-29T02:00:01.110Z,-3.51
2022-11-29T02:02:50.868Z,-3.55
2022-11-29T02:05:19.677Z,-3.50
2022-11-29T02:07:51.158Z,-3.49
2022-11-29T02:10:18.626Z,-3.29
2022-11-29T02:13:09.040Z,-3.23
2022-11-29T02:15:42.979Z,-3.39
2022-11-29T02:18:27.434Z,-3.45
2022-11-29T02:21:19.988Z,-3.36
2022-11-29T02:24:24.569Z,-3.34
2022-11-29T02:27:13.366Z,-3.29
2022-11-29T02:29:58.749Z,-3.21
2022-11-29T02:32:50.299Z,-3.29
2022-11-29T02:35:19.759Z,-3.28
2022-11-29T02:38:11.682Z,-3.22
2022-11-29T02:40:38.653Z,-3.17
2022-11-29T02:43:11.611Z,-3.10
2022-11-29T02:45:58.729Z,-3.25
2022-11-29T02:48:44.271Z,-3.48
2022-11-29T02:51:42.023Z,-3.46
2022-11-29T02:54:24.130Z,-3.39
2022-11-29T02:57:04.501Z,-3.38
2022-11-29T02:59:43.325Z,-3.30
2022-11-29T03:02:25.455Z,-3.28
2022-11-29T03:05:14.005Z,-3.33
2022-11-29T03:08:13.366Z,-3.31
2022-11-29T03:11:05.333Z,-3.42
2022-11-29T03:13:50.557Z,-3.37
2022-11-29T03:16:41.325Z,-3.41
2022-11-29T03:19:39.135Z,-3.43
2022-11-29T03:22:34.072Z,-3.98
2022-11-29T03:25:08.124Z,-3.65
2022-11-29T03:27:43.750Z,-3.58
2022-11-29T03:30:14.052Z,-3.53
2022-11-29T03:32:59.119Z,-3.58
2022-11-29T03:35:37.777Z,-3.67
2022-11-29T03:38:27.492Z,-4.01
2022-11-29T03:41:13.115Z,-4.01
2022-11-29T03:44:09.676Z,-4.03
2022-11-29T03:46:56.851Z,-4.01
2022-11-29T03:49:30.599Z,-3.94
2022-11-29T03:52:17.335Z,-3.90
2022-11-29T03:55:05.965Z,-3.86
2022-11-29T03:58:11.369Z,-3.93
2022-11-29T04:01:00.452Z,-4.06
2022-11-29T04:04:06.134Z,-4.01
2022-11-29T04:07:00.979Z,-4.14
2022-11-29T04:09:39.783Z,-4.15
2022-11-29T04:12:06.619Z,-4.12
2022-11-29T04:15:15.225Z,-4.12
2022-11-29T04:18:07.133Z,-4.04
2022-11-29T04:20:53.704Z,-4.07
2022-11-29T04:23:45.968Z,-4.07
2022-11-29T04:26:35.175Z,-4.10
2022-11-29T04:29:23.803Z,-4.16
2022-11-29T04:32:03.442Z,-4.00
2022-11-29T04:34:45.520Z,-4.05
2022-11-29T04:37:39.979Z,-3.89
2022-11-29T04:40:44.196Z,-4.03
2022-11-29T04:43:35.115Z,-4.10
2022-11-29T04:46:34.192Z,-4.14
2022-11-29T04:49:23.217Z,-4.28
2022-11-29T04:52:13.964Z,-4.36
2022-11-29T04:54:44.025Z,-4.38
2022-11-29T04:57:32.680Z,-4.28
2022-11-29T05:00:18.686Z,-4.41
2022-11-29T05:02:55.031Z,-4.45
2022-11-29T05:05:51.137Z,-4.25
2022-11-29T05:08:21.305Z,-4.29
2022-11-29T05:11:26.996Z,-4.34
2022-11-29T05:14:08.971Z,-4.14
2022-11-29T05:17:04.616Z,-4.33
2022-11-29T05:19:56.548Z,-4.13
2022-11-29T05:22:38.329Z,-4.09
2022-11-29T05:25:28.803Z,-4.21
2022-11-29T05:28:10.424Z,-4.40
2022-11-29T05:31:14.549Z,-4.56
2022-11-29T05:34:13.559Z,-4.35
2022-11-29T05:36:55.444Z,-4.40
2022-11-29T05:39:50.804Z,-4.73
2022-11-29T05:42:34.938Z,-4.19
2022-11-29T05:45:17.168Z,-4.41
2022-11-29T05:47:56.272Z,-4.52
2022-11-29T05:50:30.896Z,-4.34
2022-11-29T05:53:26.043Z,-4.31
2022-11-29T05:56:25.401Z,-4.65
2022-11-29T05:59:05.657Z,-4.48
2022-11-29T06:01:46.532Z,-4.63
2022-11-29T06:04:23.089Z,-4.64
2022-11-29T06:06:59.956Z,-4.65
2022-11-29T06:09:33.776Z,-4.57
2022-11-29T06:12:14.898Z,-4.48
2022-11-29T06:15:03.833Z,-4.62
2022-11-29T06:18:02.190Z,-4.45
2022-11-29T06:20:57.242Z,-4.47
2022-11-29T06:23:44.463Z,-4.70
2022-11-29T06:26:11.255Z,-4.63
2022-11-29T06:29:02.542Z,-4.41
2022-11-29T06:31:46.596Z,-4.34
2022-11-29T06:34:37.880Z,-4.36
2022-11-29T06:37:17.374Z,-4.24
2022-11-29T06:39:44.568Z,-4.12
2022-11-29T06:42:11.457Z,-4.20
2022-11-29T06:44:38.591Z,-4.14
2022-11-29T06:47:09.402Z,-4.45
2022-11-29T06:49:41.916Z,-4.36
2022-11-29T06:52:35.484Z,-4.27
2022-11-29T06:55:26.254Z,-4.05
2022-11-29T06:58:08.074Z,-4.00
2022-11-29T07:00:38.610Z,-3.86
2022-11-29T07:03:28.845Z,-3.83
2022-11-29T07:05:57.215Z,-3.89
2022-11-29T07:08:25.454Z,-3.85
2022-11-29T07:10:55.703Z,-3.77
2022-11-29T07:13:23.296Z,-3.97
2022-11-29T07:16:02.375Z,-4.07
2022-11-29T07:18:43.491Z,-4.01
2022-11-29T07:21:47.131Z,-3.95
2022-11-29T07:24:16.616Z,-3.86
2022-11-29T07:27:06.354Z,-3.91
2022-11-29T07:30:02.704Z,-3.74
2022-11-29T07:33:00.302Z,-3.89
2022-11-29T07:36:00.538Z,-3.73
2022-11-29T07:38:53.901Z,-3.98
2022-11-29T07:41:56.140Z,-3.97
2022-11-29T07:44:45.495Z,-3.96
2022-11-29T07:47:13.442Z,-3.78
2022-11-29T07:49:40.513Z,-3.73
2022-11-29T07:52:10.013Z,-3.95
2022-11-29T07:54:36.913Z,-4.10
2022-11-29T07:57:03.899Z,-4.02
2022-11-29T07:59:30.829Z,-4.03
2022-11-29T08:01:58.952Z,-4.11
2022-11-29T08:04:25.966Z,-3.99
2022-11-29T08:06:52.906Z,-4.28
2022-11-29T08:09:20.117Z,-4.29
2022-11-29T08:11:48.945Z,-4.04
2022-11-29T08:14:15.885Z,-3.97
2022-11-29T08:16:42.917Z,-4.07
2022-11-29T08:19:09.862Z,-4.04
2022-11-29T08:21:36.737Z,-3.92
2022-11-29T08:24:03.739Z,-3.95
2022-11-29T08:26:31.883Z,-3.99
2022-11-29T08:28:59.021Z,-4.31
2022-11-29T08:31:26.026Z,-4.01
2022-11-29T08:33:53.017Z,-3.83
2022-11-29T08:36:20.872Z,-3.74
2022-11-29T08:38:48.116Z,-3.60
2022-11-29T08:41:16.927Z,-3.47
2022-11-29T08:43:44.410Z,-3.66
2022-11-29T08:46:17.977Z,-3.64
2022-11-29T08:48:46.582Z,-3.64
2022-11-29T08:51:13.844Z,-3.69
2022-11-29T08:53:46.139Z,-3.55
2022-11-29T08:57:04.457Z,-3.56
2022-11-29T08:59:05.753Z,-3.63
2022-11-29T09:01:32.947Z,-3.54
2022-11-29T09:03:59.944Z,-3.55
2022-11-29T09:06:28.849Z,-3.37
2022-11-29T09:08:56.889Z,-3.40
2022-11-29T09:11:26.016Z,-3.34
2022-11-29T09:13:56.006Z,-3.51
2022-11-29T09:16:25.905Z,-3.48
2022-11-29T09:18:55.871Z,-3.29
2022-11-29T09:21:24.788Z,-3.05
2022-11-29T09:23:58.822Z,-3.09
2022-11-29T09:26:31.933Z,-2.93
2022-11-29T09:29:01.396Z,-3.06
2022-11-29T09:31:30.441Z,-2.90
2022-11-29T09:33:57.828Z,-2.88
2022-11-29T09:36:28.490Z,-2.79
2022-11-29T09:38:57.644Z,-2.91
2022-11-29T09:41:42.996Z,-3.00
2022-11-29T09:44:22.656Z,-3.33
2022-11-29T09:47:02.968Z,-3.11
2022-11-29T09:49:39.032Z,-3.04
2022-11-29T09:52:14.710Z,-2.79
2022-11-29T09:54:53.521Z,-2.76
2022-11-29T09:57:21.969Z,-2.94
2022-11-29T09:59:54.733Z,-2.92
2022-11-29T10:02:38.298Z,-3.27
2022-11-29T10:05:24.292Z,-3.20
2022-11-29T10:07:55.511Z,-3.54
2022-11-29T10:10:32.406Z,-3.21
2022-11-29T10:13:16.059Z,-3.10
2022-11-29T10:15:50.659Z,-2.96
2022-11-29T10:18:44.404Z,-3.31
2022-11-29T10:21:17.408Z,-3.17
2022-11-29T10:23:56.514Z,-3.25
2022-11-29T10:26:25.877Z,-3.40
2022-11-29T10:28:57.726Z,-3.47
2022-11-29T10:31:29.395Z,-3.50
2022-11-29T10:34:00.020Z,-3.45
2022-11-29T10:36:33.437Z,-3.60
2022-11-29T10:39:13.007Z,-3.48
2022-11-29T10:41:41.215Z,-3.81
2022-11-29T10:44:13.420Z,-3.64
2022-11-29T10:46:41.283Z,-3.87
2022-11-29T10:49:17.526Z,-3.60
2022-11-29T10:51:46.038Z,-3.49
2022-11-29T10:54:31.759Z,-3.41
2022-11-29T10:57:00.753Z,-3.41
2022-11-29T10:59:29.897Z,-3.27
2022-11-29T11:01:58.012Z,-3.30
2022-11-29T11:04:27.143Z,-3.72
2022-11-29T11:07:01.307Z,-3.75
2022-11-29T11:09:34.377Z,-3.84
2022-11-29T11:12:08.591Z,-3.73
2022-11-29T11:14:38.732Z,-3.67
2022-11-29T11:17:22.633Z,-3.60
2022-11-29T11:20:05.858Z,-3.30
2022-11-29T11:22:34.065Z,-3.31
2022-11-29T11:25:07.711Z,-3.47
2022-11-29T11:27:41.995Z,-3.36
2022-11-29T11:30:22.999Z,-3.49
2022-11-29T11:33:20.405Z,-3.47
2022-11-29T11:36:06.437Z,-3.31
2022-11-29T11:38:38.662Z,-3.25
2022-11-29T11:41:12.878Z,-3.20
2022-11-29T11:43:40.081Z,-3.20
2022-11-29T11:46:08.302Z,-3.20
2022-11-29T11:48:35.884Z,-3.53
2022-11-29T11:51:03.271Z,-3.80
2022-11-29T11:53:36.738Z,-3.77
2022-11-29T11:56:10.503Z,-3.74
2022-11-29T11:58:43.646Z,-3.83
2022-11-29T12:01:13.475Z,-3.83
2022-11-29T12:04:20.497Z,-3.80
2022-11-29T12:06:59.430Z,-3.89
2022-11-29T12:09:48.025Z,-3.88
2022-11-29T12:12:26.188Z,-4.09
2022-11-29T12:15:07.118Z,-4.30
2022-11-29T12:17:41.708Z,-4.36
2022-11-29T12:20:42.802Z,-4.48
2022-11-29T12:23:12.817Z,-4.68
2022-11-29T12:25:44.963Z,-4.62
2022-11-29T12:28:20.586Z,-4.75
2022-11-29T12:30:59.916Z,-4.90
2022-11-29T12:33:32.831Z,-4.95
2022-11-29T12:36:21.148Z,-4.80
2022-11-29T12:39:26.993Z,-4.78
2022-11-29T12:42:12.562Z,-4.75
2022-11-29T12:44:43.651Z,-4.83
2022-11-29T12:47:39.627Z,-4.89
2022-11-29T12:50:28.334Z,-4.78
2022-11-29T12:52:55.186Z,-4.72
2022-11-29T12:55:32.932Z,-4.77
2022-11-29T12:58:14.067Z,-4.86
2022-11-29T13:01:23.146Z,-4.92
2022-11-29T13:04:08.581Z,-4.91
2022-11-29T13:06:38.361Z,-5.02
2022-11-29T13:09:18.685Z,-4.99
2022-11-29T13:12:16.971Z,-5.07
2022-11-29T13:14:54.314Z,-5.06
2022-11-29T13:17:56.708Z,-5.09
2022-11-29T13:20:33.774Z,-5.13
2022-11-29T13:23:03.628Z,-5.35
2022-11-29T13:25:42.019Z,-5.47
2022-11-29T13:28:24.096Z,-5.47
2022-11-29T13:30:52.845Z,-5.53
2022-11-29T13:33:38.636Z,-5.63
2022-11-29T13:36:44.470Z,-5.91
2022-11-29T13:39:36.968Z,-5.90
2022-11-29T13:42:03.862Z,-5.83
2022-11-29T13:44:44.567Z,-5.74
2022-11-29T13:47:19.153Z,-5.79
2022-11-29T13:49:50.844Z,-5.76
2022-11-29T13:52:26.722Z,-5.85
2022-11-29T13:55:12.046Z,-5.84
2022-11-29T13:58:18.458Z,-5.91
2022-11-29T14:00:45.655Z,-5.93
2022-11-29T14:03:18.886Z,-6.00
2022-11-29T14:05:49.146Z,-6.23
2022-11-29T14:08:25.645Z,-6.04
2022-11-29T14:10:56.982Z,-6.17
2022-11-29T14:13:46.391Z,-6.06
2022-11-29T14:16:21.033Z,-6.07
2022-11-29T14:19:03.745Z,-6.07
2022-11-29T14:21:58.721Z,-6.10
2022-11-29T14:24:38.121Z,-6.15
2022-11-29T14:27:12.615Z,-6.22
2022-11-29T14:29:53.677Z,-6.27
2022-11-29T14:32:23.853Z,-6.18
2022-11-29T14:34:56.762Z,-6.20
2022-11-29T14:37:55.806Z,-6.14
2022-11-29T14:40:34.819Z,-6.15
2022-11-29T14:43:05.395Z,-6.18
2022-11-29T14:45:34.682Z,-6.27
2022-11-29T14:48:02.890Z,-6.45
2022-11-29T14:50:33.379Z,-6.29
2022-11-29T14:53:01.291Z,-6.25
2022-11-29T14:55:32.375Z,-6.23
2022-11-29T14:58:06.025Z,-6.28
2022-11-29T15:00:32.989Z,-6.31
2022-11-29T15:03:12.957Z,-6.41
2022-11-29T15:05:44.933Z,-6.55
2022-11-29T15:08:28.524Z,-6.58
2022-11-29T15:11:04.686Z,-6.63
2022-11-29T15:13:35.650Z,-6.65
2022-11-29T15:16:21.081Z,-6.67
2022-11-29T15:19:03.317Z,-6.74
2022-11-29T15:21:51.334Z,-6.77
2022-11-29T15:24:19.115Z,-6.84
2022-11-29T15:26:56.977Z,-6.87
2022-11-29T15:29:24.297Z,-6.87
2022-11-29T15:31:57.815Z,-6.78
2022-11-29T15:34:33.068Z,-6.72
2022-11-29T15:37:00.674Z,-6.73
2022-11-29T15:39:36.741Z,-6.77
2022-11-29T15:42:11.737Z,-6.85
2022-11-29T15:44:45.962Z,-6.94
2022-11-29T15:47:23.810Z,-6.85
2022-11-29T15:49:52.156Z,-6.88
2022-11-29T15:52:33.942Z,-7.02
2022-11-29T15:55:06.533Z,-6.94
2022-11-29T15:57:41.197Z,-6.98
2022-11-29T16:00:16.859Z,-6.99
2022-11-29T16:02:56.773Z,-6.94
2022-11-29T16:05:37.461Z,-7.07
2022-11-29T16:08:08.560Z,-7.14
2022-11-29T16:10:49.491Z,-7.14
2022-11-29T16:13:25.673Z,-7.10
2022-11-29T16:16:07.607Z,-7.15
2022-11-29T16:18:35.283Z,-7.20
2022-11-29T16:21:06.935Z,-7.20
2022-11-29T16:23:41.503Z,-7.17
2022-11-29T16:26:11.337Z,-7.34
2022-11-29T16:28:44.098Z,-7.31
2022-11-29T16:31:19.557Z,-7.39
2022-11-29T16:33:49.265Z,-7.33
2022-11-29T16:36:20.889Z,-7.28
2022-11-29T16:38:51.365Z,-7.28
2022-11-29T16:41:21.405Z,-7.25
2022-11-29T16:43:53.918Z,-7.35
2022-11-29T16:46:21.021Z,-7.28
2022-11-29T16:48:52.724Z,-7.36
2022-11-29T16:51:33.440Z,-7.33
2022-11-29T16:54:26.380Z,-7.29
2022-11-29T16:56:55.905Z,-7.31
2022-11-29T16:59:27.476Z,-7.24
2022-11-29T17:01:56.891Z,-7.21
2022-11-29T17:04:30.065Z,-7.21
2022-11-29T17:06:58.229Z,-7.25
2022-11-29T17:09:54.375Z,-7.18
2022-11-29T17:12:48.372Z,-7.18
2022-11-29T17:18:15.732Z,-7.17
2022-11-29T17:20:42.659Z,-7.20
2022-11-29T17:23:37.951Z,-7.14
2022-11-29T17:26:05.398Z,-7.12
2022-11-29T17:34:46.006Z,-7.11
2022-11-29T17:37:13.174Z,-7.10
2022-11-29T17:39:44.796Z,-7.10
2022-11-29T17:45:11.039Z,-7.04
2022-11-29T17:47:38.015Z,-7.06
2022-11-29T17:50:36.242Z,-7.13
2022-11-29T17:53:28.756Z,-7.11
2022-11-29T17:56:28.975Z,-7.11
2022-11-29T17:58:59.868Z,-7.14
2022-11-29T18:01:52.739Z,-7.16
2022-11-29T18:04:44.838Z,-7.16
2022-11-29T18:07:15.976Z,-7.09
2022-11-29T18:10:09.298Z,-7.09
2022-11-29T18:12:41.447Z,-7.12
2022-11-29T18:15:33.586Z,-7.09
2022-11-29T18:18:04.499Z,-7.08
2022-11-29T18:21:07.374Z,-7.19
2022-11-29T18:23:43.623Z,-7.08
2022-11-29T18:26:21.771Z,-7.09
2022-11-29T18:28:49.612Z,-7.09
2022-11-29T18:31:24.371Z,-7.09
2022-11-29T18:34:17.052Z,-7.15
2022-11-29T18:37:17.628Z,-7.07
2022-11-29T18:40:45.610Z,-7.10
2022-11-29T18:49:49.634Z,-7.10
2022-11-29T18:52:16.735Z,-7.10
2022-11-29T18:57:48.452Z,-7.13
2022-11-29T19:13:10.671Z,-7.14
2022-11-29T19:18:39.249Z,-7.21
2022-11-29T19:21:16.275Z,-7.11
2022-11-29T19:24:19.763Z,-7.11
2022-11-29T19:26:49.216Z,-7.19
2022-11-29T19:29:41.242Z,-7.12
2022-11-29T19:35:24.862Z,-7.15
2022-11-29T19:38:16.700Z,-7.16
2022-11-29T19:44:11.991Z,-7.18
2022-11-29T19:46:43.960Z,-7.29
2022-11-29T19:49:17.161Z,-7.21
2022-11-29T19:51:44.188Z,-7.20
2022-11-29T19:54:12.849Z,-7.20
2022-11-29T19:56:42.063Z,-7.26
2022-11-29T19:59:11.013Z,-7.23
2022-11-29T20:05:20.568Z,-7.20
2022-11-29T20:08:19.841Z,-7.21
2022-11-29T20:10:48.491Z,-7.24
2022-11-29T20:13:48.598Z,-7.22
2022-11-29T20:16:20.300Z,-7.24
2022-11-29T20:18:56.180Z,-7.24
2022-11-29T20:21:31.165Z,-7.23
2022-11-29T20:24:03.415Z,-7.27
2022-11-29T20:26:33.063Z,-7.26
2022-11-29T20:29:00.314Z,-7.28
2022-11-29T20:31:27.475Z,-7.25
2022-11-29T20:33:57.463Z,-7.25
2022-11-29T20:36:43.154Z,-7.28
2022-11-29T20:39:42.477Z,-7.27
2022-11-29T20:42:36.758Z,-7.26
2022-11-29T20:45:10.494Z,-7.31
2022-11-29T20:48:03.026Z,-7.29
2022-11-29T20:50:32.227Z,-7.33
2022-11-29T20:53:26.904Z,-7.29
2022-11-29T20:55:53.852Z,-7.31
2022-11-29T20:58:20.907Z,-7.32
2022-11-29T21:00:48.194Z,-7.30
2022-11-29T21:03:40.662Z,-7.31
2022-11-29T21:06:07.609Z,-7.33
2022-11-29T21:08:36.004Z,-7.33
2022-11-29T21:11:09.934Z,-7.32
2022-11-29T21:13:37.657Z,-7.32
2022-11-29T21:16:04.951Z,-7.38
2022-11-29T21:18:32.656Z,-7.36
2022-11-29T21:21:17.937Z,-7.37
2022-11-29T21:24:05.352Z,-7.40
2022-11-29T21:26:50.502Z,-7.37
2022-11-29T21:29:18.783Z,-7.38
2022-11-29T21:31:47.155Z,-7.49
2022-11-29T21:34:14.363Z,-7.50
2022-11-29T21:36:41.868Z,-7.47
2022-11-29T21:39:13.094Z,-7.29
2022-11-29T21:41:39.996Z,-7.30
2022-11-29T21:44:07.953Z,-7.41
2022-11-29T21:46:35.559Z,-7.31
2022-11-29T21:49:02.536Z,-7.28
2022-11-29T21:51:29.536Z,-7.26
2022-11-29T21:53:56.434Z,-7.27
2022-11-29T21:56:23.452Z,-7.27
2022-11-29T21:58:50.577Z,-7.24
2022-11-29T22:01:20.185Z,-7.25
2022-11-29T22:03:47.646Z,-7.24
2022-11-29T22:06:20.469Z,-7.24
2022-11-29T22:08:48.425Z,-7.27
2022-11-29T22:11:30.679Z,-7.29
2022-11-29T22:14:14.314Z,-7.23
2022-11-29T22:16:44.969Z,-7.30
2022-11-29T22:19:13.872Z,-7.22
2022-11-29T22:21:42.259Z,-7.22
2022-11-29T22:24:10.462Z,-7.28
2022-11-29T22:26:37.815Z,-7.22
2022-11-29T22:29:05.718Z,-7.23
2022-11-29T22:31:33.382Z,-7.39
2022-11-29T22:34:00.464Z,-7.27
2022-11-29T22:36:27.621Z,-7.31
2022-11-29T22:38:54.589Z,-7.32
2022-11-29T22:41:21.488Z,-7.32
2022-11-29T22:43:48.432Z,-7.33
2022-11-29T22:46:19.603Z,-7.34
2022-11-29T22:48:49.150Z,-7.36
2022-11-29T22:51:19.128Z,-7.43
2022-11-29T22:53:51.481Z,-7.35
2022-11-29T22:56:19.041Z,-7.34
2022-11-29T22:58:46.591Z,-7.32
2022-11-29T23:01:19.066Z,-7.30
2022-11-29T23:03:48.524Z,-7.42
2022-11-29T23:06:18.035Z,-7.35
2022-11-29T23:08:46.375Z,-7.34
2022-11-29T23:11:16.006Z,-7.33
2022-11-29T23:13:44.025Z,-7.34
2022-11-29T23:16:14.472Z,-7.34
2022-11-29T23:18:45.852Z,-7.33
2022-11-29T23:21:22.210Z,-7.33
2022-11-29T23:23:55.854Z,-7.34
2022-11-29T23:26:26.554Z,-7.34
2022-11-29T23:28:54.555Z,-7.34
2022-11-29T23:31:23.130Z,-7.35
2022-11-29T23:33:50.932Z,-7.36
2022-11-29T23:36:18.324Z,-7.37
2022-11-29T23:38:45.332Z,-7.37
2022-11-29T23:41:12.806Z,-7.36
2022-11-29T23:43:41.197Z,-7.41
2022-11-29T23:46:19.278Z,-7.38
2022-11-29T23:48:47.003Z,-7.41
2022-11-29T23:51:14.346Z,-7.42
2022-11-29T23:53:41.961Z,-7.42
2022-11-29T23:56:13.455Z,-7.39
2022-11-29T23:58:40.609Z,-7.52
